createdAt,value
2023-02-04T00:00:19.611Z,2.00
2023-02-04T00:02:46.414Z,1.53
2023-02-04T00:05:13.280Z,1.90
2023-02-04T00:07:41.360Z,1.80
2023-02-04T00:10:09.196Z,1.90
2023-02-04T00:12:35.704Z,1.70
2023-02-04T00:15:02.397Z,1.53
2023-02-04T00:17:28.822Z,1.60
2023-02-04T00:19:55.287Z,2.40
2023-02-04T00:22:21.850Z,1.50
2023-02-04T00:24:49.993Z,2.40
2023-02-04T00:27:16.737Z,2.10
2023-02-04T00:29:43.165Z,2.33
2023-02-04T00:32:10.006Z,1.53
2023-02-04T00:34:36.542Z,2.00
2023-02-04T00:37:03.005Z,2.03
2023-02-04T00:39:30.069Z,1.93
2023-02-04T00:41:56.555Z,1.80
2023-02-04T00:44:23.098Z,1.70
2023-02-04T00:46:49.505Z,1.80
2023-02-04T00:49:15.965Z,1.83
2023-02-04T00:51:46.430Z,1.83
2023-02-04T00:54:13.675Z,1.87
2023-02-04T00:56:40.094Z,1.67
2023-02-04T00:59:06.774Z,1.97
2023-02-04T01:01:33.328Z,2.03
2023-02-04T01:03:59.796Z,1.60
2023-02-04T01:06:26.398Z,2.10
2023-02-04T01:08:53.860Z,1.70
2023-02-04T01:11:20.309Z,1.70
2023-02-04T01:13:47.189Z,1.47
2023-02-04T01:16:13.826Z,1.73
2023-02-04T01:18:40.247Z,1.47
2023-02-04T01:21:06.893Z,1.40
2023-02-04T01:23:33.410Z,1.60
2023-02-04T01:25:59.857Z,1.97
2023-02-04T01:28:26.303Z,1.50
2023-02-04T01:30:52.820Z,1.83
2023-02-04T01:33:19.231Z,1.40
2023-02-04T01:35:45.639Z,1.30
2023-02-04T01:38:12.160Z,2.07
2023-02-04T01:40:38.728Z,1.23
2023-02-04T01:43:05.760Z,1.50
2023-02-04T01:45:34.635Z,1.27
2023-02-04T01:48:03.462Z,1.40
2023-02-04T01:50:30.399Z,1.60
2023-02-04T01:52:57.268Z,1.87
2023-02-04T01:55:29.328Z,1.10
2023-02-04T01:57:59.041Z,1.50
2023-02-04T02:00:31.212Z,1.10
2023-02-04T02:02:58.647Z,1.20
2023-02-04T02:05:49.213Z,1.20
2023-02-04T02:08:16.099Z,1.07
2023-02-04T02:10:45.478Z,1.50
2023-02-04T02:13:14.145Z,1.00
2023-02-04T02:15:41.477Z,1.20
2023-02-04T02:18:08.227Z,1.10
2023-02-04T02:20:34.635Z,1.50
2023-02-04T02:23:21.192Z,1.20
2023-02-04T02:25:47.799Z,1.50
2023-02-04T02:28:17.194Z,1.13
2023-02-04T02:30:47.073Z,1.60
2023-02-04T02:33:17.441Z,1.77
2023-02-04T02:35:48.243Z,1.80
2023-02-04T02:38:19.122Z,2.10
2023-02-04T02:40:45.921Z,1.67
2023-02-04T02:43:16.116Z,1.50
2023-02-04T02:45:42.961Z,1.40
2023-02-04T02:48:09.764Z,1.33
2023-02-04T02:50:36.535Z,1.73
2023-02-04T02:53:04.309Z,1.50
2023-02-04T02:55:31.417Z,1.43
2023-02-04T02:57:57.832Z,2.00
2023-02-04T03:00:27.365Z,1.50
2023-02-04T03:03:04.191Z,1.57
2023-02-04T03:05:33.112Z,1.63
2023-02-04T03:07:59.874Z,1.33
2023-02-04T03:10:26.384Z,1.27
2023-02-04T03:12:52.823Z,1.30
2023-02-04T03:15:19.601Z,1.20
2023-02-04T03:17:46.821Z,1.23
2023-02-04T03:20:14.314Z,1.10
2023-02-04T03:22:40.773Z,1.13
2023-02-04T03:25:07.659Z,2.53
2023-02-04T03:27:34.165Z,1.53
2023-02-04T03:30:00.785Z,1.30
2023-02-04T03:32:27.225Z,1.20
2023-02-04T03:34:53.616Z,1.47
2023-02-04T03:37:20.103Z,1.10
2023-02-04T03:39:46.483Z,1.10
2023-02-04T03:42:12.930Z,1.43
2023-02-04T03:44:39.352Z,1.37
2023-02-04T03:47:05.773Z,1.10
2023-02-04T03:49:32.311Z,1.00
2023-02-04T03:51:58.716Z,1.30
2023-02-04T03:54:25.165Z,1.30
2023-02-04T03:56:51.586Z,1.30
2023-02-04T03:59:18.046Z,1.40
2023-02-04T04:01:44.476Z,1.20
2023-02-04T04:04:10.946Z,1.50
2023-02-04T04:06:37.536Z,1.37
2023-02-04T04:09:04.891Z,1.20
2023-02-04T04:11:31.391Z,1.60
2023-02-04T04:13:57.948Z,1.33
2023-02-04T04:16:24.569Z,1.30
2023-02-04T04:18:51.032Z,1.63
2023-02-04T04:21:17.451Z,1.40
2023-02-04T04:23:43.851Z,1.30
2023-02-04T04:26:10.415Z,1.53
2023-02-04T04:28:36.813Z,1.23
2023-02-04T04:31:03.376Z,1.10
2023-02-04T04:33:29.850Z,1.60
2023-02-04T04:35:56.281Z,1.07
2023-02-04T04:38:22.868Z,1.57
2023-02-04T04:40:49.253Z,1.70
2023-02-04T04:43:15.665Z,1.20
2023-02-04T04:45:42.065Z,1.43
2023-02-04T04:48:08.526Z,1.30
2023-02-04T04:50:35.057Z,1.50
2023-02-04T04:53:01.548Z,1.60
2023-02-04T04:55:28.394Z,1.90
2023-02-04T04:57:55.071Z,1.63
2023-02-04T05:00:22.114Z,1.80
2023-02-04T05:02:48.596Z,1.97
2023-02-04T05:05:15.203Z,1.80
2023-02-04T05:07:41.624Z,1.70
2023-02-04T05:10:08.539Z,1.73
2023-02-04T05:12:35.023Z,1.60
2023-02-04T05:15:01.409Z,1.90
2023-02-04T05:17:28.780Z,1.77
2023-02-04T05:19:55.382Z,1.60
2023-02-04T05:22:21.928Z,1.67
2023-02-04T05:24:48.346Z,1.40
2023-02-04T05:27:14.817Z,1.67
2023-02-04T05:29:41.356Z,1.90
2023-02-04T05:32:08.060Z,1.90
2023-02-04T05:34:34.526Z,1.73
2023-02-04T05:37:01.092Z,1.50
2023-02-04T05:39:27.947Z,2.20
2023-02-04T05:41:54.365Z,1.80
2023-02-04T05:44:20.803Z,1.80
2023-02-04T05:46:47.481Z,1.60
2023-02-04T05:49:14.549Z,1.90
2023-02-04T05:51:40.969Z,2.00
2023-02-04T05:54:07.383Z,1.83
2023-02-04T05:56:33.886Z,1.63
2023-02-04T05:59:00.457Z,1.63
2023-02-04T06:01:26.998Z,1.70
2023-02-04T06:03:53.516Z,1.80
2023-02-04T06:06:19.945Z,2.03
2023-02-04T06:08:46.378Z,2.20
2023-02-04T06:11:12.925Z,2.13
2023-02-04T06:13:39.347Z,2.13
2023-02-04T06:16:06.017Z,2.60
2023-02-04T06:18:32.450Z,2.33
2023-02-04T06:20:58.903Z,1.70
2023-02-04T06:23:25.354Z,2.43
2023-02-04T06:25:51.788Z,2.70
2023-02-04T06:28:18.330Z,2.97
2023-02-04T06:30:45.780Z,2.60
2023-02-04T06:33:12.319Z,2.40
2023-02-04T06:35:38.712Z,2.83
2023-02-04T06:38:05.176Z,2.83
2023-02-04T06:40:31.941Z,3.00
2023-02-04T06:42:58.550Z,3.40
2023-02-04T06:45:24.995Z,2.80
2023-02-04T06:47:51.419Z,3.17
2023-02-04T06:50:18.902Z,3.10
2023-02-04T06:52:48.768Z,3.47
2023-02-04T06:55:16.359Z,3.60
2023-02-04T06:57:42.956Z,3.40
2023-02-04T07:00:11.096Z,3.40
2023-02-04T07:02:39.760Z,3.60
2023-02-04T07:05:06.592Z,3.40
2023-02-04T07:07:32.990Z,3.70
2023-02-04T07:09:59.436Z,3.47
2023-02-04T07:12:25.974Z,4.00
2023-02-04T07:14:52.421Z,3.60
2023-02-04T07:17:18.937Z,2.93
2023-02-04T07:19:45.369Z,4.00
2023-02-04T07:22:11.917Z,3.57
2023-02-04T07:24:38.358Z,4.03
2023-02-04T07:27:04.767Z,4.03
2023-02-04T07:29:31.171Z,3.97
2023-02-04T07:31:57.825Z,3.87
2023-02-04T07:34:24.260Z,4.23
2023-02-04T07:36:50.834Z,4.50
2023-02-04T07:39:17.338Z,4.00
2023-02-04T07:41:43.776Z,3.80
2023-02-04T07:44:10.193Z,3.60
2023-02-04T07:46:36.706Z,4.27
2023-02-04T07:49:03.416Z,4.50
2023-02-04T07:51:29.831Z,4.70
2023-02-04T07:53:56.532Z,4.70
2023-02-04T07:56:23.277Z,5.07
2023-02-04T07:58:49.883Z,4.87
2023-02-04T08:01:16.918Z,4.57
2023-02-04T08:03:43.529Z,4.63
2023-02-04T08:06:10.138Z,5.57
2023-02-04T08:08:36.592Z,4.77
2023-02-04T08:11:03.006Z,5.60
2023-02-04T08:13:29.408Z,5.03
2023-02-04T08:15:55.982Z,4.73
2023-02-04T08:18:22.426Z,5.90
2023-02-04T08:20:48.934Z,5.90
2023-02-04T08:23:15.471Z,5.43
2023-02-04T08:25:41.943Z,5.70
2023-02-04T08:28:08.529Z,6.27
2023-02-04T08:30:35.328Z,6.43
2023-02-04T08:33:01.834Z,5.87
2023-02-04T08:35:28.239Z,6.00
2023-02-04T08:37:55.078Z,5.43
2023-02-04T08:40:21.535Z,6.03
2023-02-04T08:42:47.967Z,5.30
2023-02-04T08:45:14.583Z,5.30
2023-02-04T08:47:40.985Z,4.93
2023-02-04T08:50:08.935Z,4.93
2023-02-04T08:52:36.678Z,4.87
2023-02-04T08:55:04.085Z,4.13
2023-02-04T08:57:30.516Z,4.73
2023-02-04T08:59:56.936Z,4.30
2023-02-04T09:02:23.478Z,4.63
2023-02-04T09:04:50.044Z,4.33
2023-02-04T09:07:16.424Z,4.20
2023-02-04T09:09:42.847Z,4.90
2023-02-04T09:12:09.289Z,4.43
2023-02-04T09:14:35.750Z,4.43
2023-02-04T09:17:02.187Z,4.43
2023-02-04T09:19:28.591Z,4.50
2023-02-04T09:21:55.156Z,4.33
2023-02-04T09:24:23.645Z,4.63
2023-02-04T09:26:50.603Z,4.27
2023-02-04T09:29:17.017Z,4.00
2023-02-04T09:31:43.629Z,3.83
2023-02-04T09:34:10.067Z,3.70
2023-02-04T09:36:38.498Z,4.33
2023-02-04T09:39:06.285Z,3.90
2023-02-04T09:41:38.977Z,3.43
2023-02-04T09:44:12.658Z,4.23
2023-02-04T09:46:39.091Z,5.00
2023-02-04T09:49:05.689Z,3.43
2023-02-04T09:51:34.266Z,3.43
2023-02-04T09:54:12.074Z,3.50
2023-02-04T09:56:38.594Z,3.13
2023-02-04T09:59:11.985Z,3.50
2023-02-04T10:01:38.473Z,3.13
2023-02-04T10:04:05.163Z,3.30
2023-02-04T10:06:31.935Z,3.37
2023-02-04T10:08:59.553Z,3.43
2023-02-04T10:11:26.581Z,3.10
2023-02-04T10:13:54.931Z,3.20
2023-02-04T10:16:23.910Z,3.43
2023-02-04T10:18:50.727Z,3.10
2023-02-04T10:21:22.976Z,3.10
2023-02-04T10:23:51.763Z,4.13
2023-02-04T10:26:27.315Z,3.47
2023-02-04T10:29:05.599Z,3.00
2023-02-04T10:31:37.828Z,2.80
2023-02-04T10:34:12.480Z,2.40
2023-02-04T10:36:39.960Z,3.20
2023-02-04T10:39:20.972Z,3.10
2023-02-04T10:41:52.049Z,2.43
2023-02-04T10:44:21.371Z,2.40
2023-02-04T10:46:48.459Z,2.63
2023-02-04T10:49:22.815Z,2.40
2023-02-04T10:51:51.472Z,2.50
2023-02-04T10:54:32.171Z,1.80
2023-02-04T10:57:00.642Z,1.83
2023-02-04T10:59:27.939Z,1.73
2023-02-04T11:01:58.750Z,2.07
2023-02-04T11:04:26.455Z,2.20
2023-02-04T11:06:53.214Z,2.17
2023-02-04T11:09:19.879Z,1.90
2023-02-04T11:11:47.917Z,1.50
2023-02-04T11:14:26.541Z,1.73
2023-02-04T11:16:54.717Z,1.60
2023-02-04T11:19:33.724Z,1.50
2023-02-04T11:22:23.590Z,1.10
2023-02-04T11:24:51.032Z,1.57
2023-02-04T11:27:23.404Z,1.10
2023-02-04T11:29:49.926Z,1.00
2023-02-04T11:32:38.131Z,1.63
2023-02-04T11:35:21.869Z,0.90
2023-02-04T11:37:49.134Z,1.10
2023-02-04T11:40:30.734Z,1.20
2023-02-04T11:43:24.433Z,1.33
2023-02-04T11:46:01.657Z,0.93
2023-02-04T11:48:28.304Z,1.43
2023-02-04T11:50:59.792Z,1.43
2023-02-04T11:53:31.328Z,1.40
2023-02-04T11:55:58.609Z,1.30
2023-02-04T11:58:26.327Z,1.50
2023-02-04T12:00:53.210Z,1.83
2023-02-04T12:03:32.113Z,1.50
2023-02-04T12:05:59.100Z,1.60
2023-02-04T12:08:26.905Z,1.90
2023-02-04T12:11:25.917Z,1.90
2023-02-04T12:13:54.439Z,1.40
2023-02-04T12:16:21.051Z,1.70
2023-02-04T12:18:47.672Z,1.60
2023-02-04T12:21:16.984Z,1.50
2023-02-04T12:23:43.459Z,1.60
2023-02-04T12:26:09.952Z,1.57
2023-02-04T12:28:36.362Z,1.60
2023-02-04T12:31:02.944Z,1.50
2023-02-04T12:33:29.584Z,1.40
2023-02-04T12:35:56.051Z,1.40
2023-02-04T12:38:22.489Z,1.30
2023-02-04T12:40:48.882Z,1.60
2023-02-04T12:43:15.321Z,1.97
2023-02-04T12:45:45.781Z,1.70
2023-02-04T12:48:13.718Z,1.87
2023-02-04T12:50:40.184Z,1.70
2023-02-04T12:53:06.842Z,1.60
2023-02-04T12:55:33.576Z,2.17
2023-02-04T12:58:00.146Z,1.90
2023-02-04T13:00:27.627Z,2.03
2023-02-04T13:02:59.077Z,1.60
2023-02-04T13:05:26.295Z,1.60
2023-02-04T13:07:52.748Z,1.63
2023-02-04T13:10:20.218Z,1.57
2023-02-04T13:12:46.654Z,1.73
2023-02-04T13:15:13.104Z,1.70
2023-02-04T13:17:39.509Z,1.77
2023-02-04T13:20:07.386Z,2.00
2023-02-04T13:22:34.171Z,1.90
2023-02-04T13:25:01.773Z,1.70
2023-02-04T13:27:31.022Z,1.80
2023-02-04T13:29:57.937Z,2.17
2023-02-04T13:32:24.491Z,2.23
2023-02-04T13:34:51.137Z,2.00
2023-02-04T13:37:17.586Z,1.77
2023-02-04T13:39:44.010Z,1.60
2023-02-04T13:42:10.452Z,2.20
2023-02-04T13:44:36.890Z,1.83
2023-02-04T13:47:03.437Z,1.77
2023-02-04T13:49:29.875Z,2.00
2023-02-04T13:51:56.309Z,1.90
2023-02-04T13:54:22.740Z,2.00
2023-02-04T13:56:49.192Z,1.63
2023-02-04T13:59:15.726Z,1.97
2023-02-04T14:01:43.643Z,1.83
2023-02-04T14:04:10.256Z,2.10
2023-02-04T14:06:43.380Z,1.90
2023-02-04T14:09:12.157Z,1.63
2023-02-04T14:11:39.130Z,1.87
2023-02-04T14:14:06.129Z,1.80
2023-02-04T14:16:32.611Z,1.60
2023-02-04T14:18:59.063Z,1.57
2023-02-04T14:21:25.538Z,1.37
2023-02-04T14:23:51.917Z,1.33
2023-02-04T14:26:18.336Z,1.50
2023-02-04T14:28:44.729Z,1.70
2023-02-04T14:31:11.259Z,1.60
2023-02-04T14:33:37.702Z,1.60
2023-02-04T14:36:04.374Z,1.47
2023-02-04T14:38:31.061Z,1.50
2023-02-04T14:40:58.497Z,1.63
2023-02-04T14:43:25.283Z,1.70
2023-02-04T14:45:52.067Z,1.40
2023-02-04T14:48:18.501Z,1.87
2023-02-04T14:50:44.990Z,1.87
2023-02-04T14:53:11.396Z,1.60
2023-02-04T14:55:37.823Z,1.37
2023-02-04T14:58:04.299Z,1.80
2023-02-04T15:00:31.215Z,1.30
2023-02-04T15:02:57.915Z,1.63
2023-02-04T15:05:24.350Z,1.13
2023-02-04T15:07:51.346Z,1.50
2023-02-04T15:10:17.874Z,1.50
2023-02-04T15:12:44.528Z,2.00
2023-02-04T15:15:11.090Z,1.80
2023-02-04T15:17:37.550Z,1.57
2023-02-04T15:20:04.682Z,1.40
2023-02-04T15:22:31.239Z,1.63
2023-02-04T15:24:57.675Z,3.07
2023-02-04T15:27:24.543Z,2.27
2023-02-04T15:29:51.005Z,1.70
2023-02-04T15:32:17.563Z,1.50
2023-02-04T15:34:43.992Z,2.20
2023-02-04T15:37:10.948Z,2.80
2023-02-04T15:39:38.087Z,2.07
2023-02-04T15:42:04.563Z,2.00
2023-02-04T15:44:31.091Z,2.60
2023-02-04T15:46:57.535Z,2.30
2023-02-04T15:49:24.102Z,2.47
2023-02-04T15:51:50.677Z,2.20
2023-02-04T15:54:17.190Z,1.70
2023-02-04T15:56:44.516Z,2.40
2023-02-04T15:59:12.265Z,2.23
2023-02-04T16:01:38.843Z,2.93
2023-02-04T16:04:05.353Z,3.20
2023-02-04T16:06:32.019Z,2.73
2023-02-04T16:08:58.642Z,2.37
2023-02-04T16:11:25.105Z,2.70
2023-02-04T16:13:51.561Z,2.83
2023-02-04T16:16:18.050Z,2.10
2023-02-04T16:18:44.571Z,2.00
2023-02-04T16:21:10.981Z,2.20
2023-02-04T16:23:37.553Z,2.20
2023-02-04T16:26:04.006Z,2.60
2023-02-04T16:28:30.562Z,2.30
2023-02-04T16:30:57.356Z,2.67
2023-02-04T16:33:25.091Z,2.20
2023-02-04T16:36:03.928Z,3.17
2023-02-04T16:38:31.943Z,32.50
2023-02-04T16:40:58.470Z,9.37
2023-02-04T16:43:25.406Z,8.97
2023-02-04T16:45:51.865Z,3.67
2023-02-04T16:48:19.769Z,3.57
2023-02-04T16:50:46.171Z,5.33
2023-02-04T16:53:16.042Z,4.97
2023-02-04T16:55:44.036Z,4.10
2023-02-04T16:58:13.124Z,3.63
2023-02-04T17:00:42.127Z,3.70
2023-02-04T17:03:09.606Z,3.43
2023-02-04T17:05:36.312Z,6.77
2023-02-04T17:08:03.029Z,5.57
2023-02-04T17:10:48.127Z,4.20
2023-02-04T17:13:14.659Z,3.80
2023-02-04T17:15:41.221Z,3.70
2023-02-04T17:18:07.876Z,3.53
2023-02-04T17:20:34.649Z,3.20
2023-02-04T17:23:01.265Z,3.43
2023-02-04T17:25:27.708Z,3.80
2023-02-04T17:27:54.236Z,3.40
2023-02-04T17:30:20.939Z,3.10
2023-02-04T17:32:47.617Z,2.73
2023-02-04T17:35:14.254Z,2.60
2023-02-04T17:37:40.686Z,3.13
2023-02-04T17:40:07.650Z,3.20
2023-02-04T17:42:34.091Z,3.20
2023-02-04T17:45:00.547Z,2.77
2023-02-04T17:47:27.120Z,3.17
2023-02-04T17:49:53.569Z,2.70
2023-02-04T17:52:20.066Z,2.87
2023-02-04T17:54:46.531Z,2.77
2023-02-04T17:57:20.733Z,3.00
2023-02-04T17:59:47.650Z,3.33
2023-02-04T18:02:32.901Z,2.97
2023-02-04T18:05:12.967Z,3.97
2023-02-04T18:07:40.202Z,3.70
2023-02-04T18:10:36.566Z,3.73
2023-02-04T18:13:21.464Z,3.17
2023-02-04T18:15:53.302Z,3.30
2023-02-04T18:18:28.023Z,3.43
2023-02-04T18:21:24.668Z,3.80
2023-02-04T18:24:01.234Z,4.33
2023-02-04T18:26:28.462Z,3.90
2023-02-04T18:28:54.981Z,4.13
2023-02-04T18:31:40.011Z,4.60
2023-02-04T18:34:23.866Z,5.43
2023-02-04T18:36:50.969Z,4.53
2023-02-04T18:39:26.420Z,4.57
2023-02-04T18:41:52.831Z,4.73
2023-02-04T18:44:28.938Z,5.30
2023-02-04T18:46:55.505Z,5.70
2023-02-04T18:49:30.238Z,5.83
2023-02-04T18:51:58.953Z,6.03
2023-02-04T18:54:33.471Z,6.40
2023-02-04T18:57:11.985Z,6.40
2023-02-04T18:59:39.553Z,6.03
2023-02-04T19:02:24.727Z,6.07
2023-02-04T19:04:52.206Z,7.30
2023-02-04T19:07:18.823Z,6.60
2023-02-04T19:09:45.258Z,9.97
2023-02-04T19:12:21.321Z,6.93
2023-02-04T19:14:48.415Z,9.30
2023-02-04T19:17:27.960Z,15.37
2023-02-04T19:19:59.971Z,14.40
2023-02-04T19:22:43.433Z,10.43
2023-02-04T19:25:22.344Z,10.30
2023-02-04T19:27:54.566Z,9.60
2023-02-04T19:30:30.163Z,9.53
2023-02-04T19:33:01.611Z,9.37
2023-02-04T19:35:40.742Z,8.57
2023-02-04T19:38:41.230Z,8.50
2023-02-04T19:41:30.345Z,10.33
2023-02-04T19:44:27.457Z,10.37
2023-02-04T19:46:54.085Z,9.40
2023-02-04T19:49:24.114Z,9.23
2023-02-04T19:51:58.155Z,8.57
2023-02-04T19:54:39.352Z,8.93
2023-02-04T19:57:21.129Z,8.80
2023-02-04T19:59:47.705Z,12.23
2023-02-04T20:02:35.797Z,11.10
2023-02-04T20:05:13.909Z,8.90
2023-02-04T20:07:40.330Z,8.83
2023-02-04T20:10:06.637Z,9.07
2023-02-04T20:12:33.478Z,8.77
2023-02-04T20:15:00.573Z,23.23
2023-02-04T20:17:37.362Z,27.67
2023-02-04T20:20:15.948Z,19.77
2023-02-04T20:22:50.751Z,14.80
2023-02-04T20:25:20.181Z,11.40
2023-02-04T20:27:49.744Z,8.20
2023-02-04T20:30:21.485Z,8.60
2023-02-04T20:32:53.851Z,11.63
2023-02-04T20:35:20.282Z,16.07
2023-02-04T20:37:51.669Z,10.53
2023-02-04T20:40:24.221Z,8.70
2023-02-04T20:42:52.836Z,11.10
2023-02-04T20:45:38.416Z,13.37
2023-02-04T20:48:17.138Z,9.97
2023-02-04T20:50:57.105Z,8.23
2023-02-04T20:53:26.827Z,8.30
2023-02-04T20:56:05.104Z,7.87
2023-02-04T20:58:36.387Z,8.33
2023-02-04T21:01:03.007Z,7.90
2023-02-04T21:03:37.046Z,7.60
2023-02-04T21:06:21.117Z,7.27
2023-02-04T21:08:48.457Z,7.63
2023-02-04T21:11:14.947Z,7.03
2023-02-04T21:13:41.438Z,7.33
2023-02-04T21:16:08.821Z,7.53
2023-02-04T21:18:35.684Z,6.27
2023-02-04T21:21:03.995Z,6.63
2023-02-04T21:23:30.818Z,6.23
2023-02-04T21:25:58.494Z,5.90
2023-02-04T21:28:25.216Z,13.40
2023-02-04T21:30:51.724Z,6.33
2023-02-04T21:33:18.445Z,5.53
2023-02-04T21:35:44.964Z,6.10
2023-02-04T21:38:11.613Z,7.00
2023-02-04T21:40:38.354Z,6.60
2023-02-04T21:43:08.232Z,6.23
2023-02-04T21:45:37.029Z,6.27
2023-02-04T21:48:04.106Z,5.93
2023-02-04T21:50:34.986Z,6.00
2023-02-04T21:53:01.601Z,7.93
2023-02-04T21:55:29.123Z,7.27
2023-02-04T21:57:55.823Z,6.87
2023-02-04T22:00:23.828Z,6.03
2023-02-04T22:02:54.136Z,6.30
2023-02-04T22:05:21.701Z,6.77
2023-02-04T22:07:48.161Z,6.37
2023-02-04T22:10:20.413Z,6.77
2023-02-04T22:12:47.086Z,6.23
2023-02-04T22:15:13.948Z,17.73
2023-02-04T22:17:40.386Z,9.90
2023-02-04T22:20:07.211Z,11.80
2023-02-04T22:22:33.646Z,11.73
2023-02-04T22:25:00.425Z,6.93
2023-02-04T22:27:27.217Z,7.17
2023-02-04T22:29:53.806Z,6.87
2023-02-04T22:32:20.270Z,6.60
2023-02-04T22:34:46.801Z,7.40
2023-02-04T22:37:13.206Z,6.93
2023-02-04T22:39:39.679Z,7.00
2023-02-04T22:42:06.680Z,6.10
2023-02-04T22:44:33.165Z,6.40
2023-02-04T22:46:59.925Z,5.87
2023-02-04T22:49:26.444Z,6.67
2023-02-04T22:51:52.907Z,5.90
2023-02-04T22:54:19.414Z,9.00
2023-02-04T22:56:45.874Z,5.80
2023-02-04T22:59:12.361Z,7.10
2023-02-04T23:01:38.828Z,6.13
2023-02-04T23:04:05.297Z,6.20
2023-02-04T23:06:31.872Z,5.90
2023-02-04T23:08:58.277Z,5.87
2023-02-04T23:11:24.955Z,6.20
2023-02-04T23:13:51.516Z,6.20
2023-02-04T23:16:19.061Z,6.77
2023-02-04T23:18:45.771Z,6.43
2023-02-04T23:21:12.800Z,5.87
2023-02-04T23:23:39.454Z,5.83
2023-02-04T23:26:06.164Z,5.40
2023-02-04T23:28:32.613Z,6.23
2023-02-04T23:30:59.348Z,5.67
2023-02-04T23:33:25.757Z,5.93
2023-02-04T23:35:52.247Z,5.67
2023-02-04T23:38:18.698Z,5.97
2023-02-04T23:40:45.403Z,5.40
2023-02-04T23:43:11.926Z,5.30
2023-02-04T23:45:38.612Z,5.40
2023-02-04T23:48:05.743Z,5.07
2023-02-04T23:50:32.333Z,18.60
2023-02-04T23:52:58.916Z,6.13
2023-02-04T23:55:25.398Z,5.00
2023-02-04T23:57:51.892Z,5.17
